Time;durP1;ratioP1;P1;durP2;ratioP2;P2;SDS_P1;SDS_P2;PMS_P1;PMS_P2;Temp;Humidity;BMP_temperature;BMP_pressure;BME280_temperature;BME280_humidity;BME280_pressure;Samples;Min_cycle;Max_cycle;Signal;HPM_P1;HPM_P2
2021/11/04 00:00:20;;;;;;;37.60;23.63;;;;;;;7.92;100.00;100323.16;10251304;28;20084;-75
2021/11/04 00:05:17;;;;;;;38.50;24.58;;;;;;;7.90;100.00;100319.94;10259618;28;20495;-72
2021/11/04 00:10:14;;;;;;;35.90;23.85;;;;;;;7.90;99.94;100320.75;10255190;28;20080;-71
2021/11/04 00:15:11;;;;;;;39.67;24.27;;;;;;;7.90;99.80;100309.06;10259107;28;20100;-71
2021/11/04 00:20:09;;;;;;;39.60;24.48;;;;;;;7.88;100.00;100316.72;10244938;28;20084;-71
2021/11/04 00:25:07;;;;;;;44.15;25.75;;;;;;;7.90;100.00;100314.50;10258885;28;20118;-71
2021/11/04 00:30:05;;;;;;;41.25;24.73;;;;;;;7.92;100.00;100323.97;10261024;28;20084;-71
2021/11/04 00:35:03;;;;;;;37.75;23.77;;;;;;;7.91;100.00;100316.09;10263382;28;20499;-71
2021/11/04 00:40:00;;;;;;;44.47;25.67;;;;;;;7.93;100.00;100313.88;10263969;28;20041;-71
2021/11/04 00:44:56;;;;;;;40.20;24.23;;;;;;;7.94;100.00;100304.59;10256586;28;20044;-72
2021/11/04 00:49:53;;;;;;;38.97;24.10;;;;;;;7.90;99.60;100304.41;10260595;28;20538;-71
2021/11/04 00:54:49;;;;;;;43.13;26.23;;;;;;;7.91;100.00;100305.19;10262944;28;20040;-73
2021/11/04 00:59:46;;;;;;;40.83;24.95;;;;;;;7.87;100.00;100312.41;10264835;28;20041;-71
2021/11/04 01:04:42;;;;;;;38.10;23.52;;;;;;;7.83;100.00;100312.19;10271897;28;20091;-71
2021/11/04 01:09:39;;;;;;;39.30;24.95;;;;;;;7.84;100.00;100299.41;10258777;28;20083;-71
2021/11/04 01:14:35;;;;;;;39.80;24.75;;;;;;;7.84;100.00;100304.84;10260772;28;20076;-71
2021/11/04 01:19:32;;;;;;;41.17;25.55;;;;;;;7.84;100.00;100310.28;10256250;28;20098;-71
2021/11/04 01:24:29;;;;;;;40.03;24.50;;;;;;;7.83;100.00;100298.59;10263807;28;20521;-71
2021/11/04 01:29:25;;;;;;;39.28;24.73;;;;;;;7.84;100.00;100304.84;10274335;28;20049;-72
2021/11/04 01:34:22;;;;;;;34.03;22.48;;;;;;;7.80;100.00;100293.78;10277046;28;20525;-71
2021/11/04 01:39:19;;;;;;;38.92;24.05;;;;;;;7.85;100.00;100290.13;10268480;28;20090;-71
2021/11/04 01:44:15;;;;;;;40.58;24.13;;;;;;;7.84;100.00;100293.94;10253184;28;20507;-72
2021/11/04 01:49:12;;;;;;;40.13;25.75;;;;;;;7.83;100.00;100298.59;10270277;28;20125;-71
2021/11/04 01:54:08;;;;;;;43.60;24.63;;;;;;;7.82;100.00;100307.88;10247528;28;20240;-71
2021/11/04 01:59:05;;;;;;;39.13;24.58;;;;;;;7.85;100.00;100295.56;10245956;28;20122;-72
2021/11/04 02:04:15;;;;;;;40.53;24.45;;;;;;;7.85;100.00;100301.03;10248358;28;20040;-72
2021/11/04 02:09:20;;;;;;;45.33;27.25;;;;;;;7.84;100.00;100294.75;10256486;28;20137;-71
2021/11/04 02:14:27;;;;;;;47.33;25.65;;;;;;;7.82;100.00;100290.72;10258085;28;20785;-72
2021/11/04 02:19:29;;;;;;;41.67;24.25;;;;;;;7.80;100.00;100289.13;10271240;28;20041;-72
2021/11/04 02:25:06;;;;;;;42.67;24.25;;;;;;;7.82;100.00;100283.41;10273758;28;20077;-73
2021/11/04 02:30:04;;;;;;;41.85;25.13;;;;;;;7.83;100.00;100276.03;10258785;28;20084;-72
2021/11/04 02:35:01;;;;;;;42.85;24.80;;;;;;;7.79;100.00;100271.19;10271998;28;20048;-71
2021/11/04 02:39:58;;;;;;;44.33;26.23;;;;;;;7.76;100.00;100269.09;10275826;28;20079;-71
2021/11/04 02:44:56;;;;;;;41.85;25.42;;;;;;;7.78;100.00;100263.34;10265684;28;20457;-72
2021/11/04 02:49:52;;;;;;;50.72;27.25;;;;;;;7.79;100.00;100259.50;10283105;28;20640;-71
2021/11/04 02:55:06;;;;;;;51.90;27.27;;;;;;;7.73;100.00;100256.09;10270245;28;20084;-71
2021/11/04 03:00:03;;;;;;;;;;;;;;;7.71;100.00;100242.00;10230585;28;20069;-72
2021/11/04 03:04:59;;;;;;;48.72;27.25;;;;;;;7.70;100.00;100245.03;10260792;28;19921;-72
2021/11/04 03:09:56;;;;;;;45.15;26.40;;;;;;;7.72;100.00;100254.47;10267367;28;20039;-72
2021/11/04 03:14:53;;;;;;;41.15;23.70;;;;;;;7.68;100.00;100258.13;10256319;28;20572;-71
2021/11/04 03:19:50;;;;;;;44.78;24.63;;;;;;;7.72;100.00;100259.94;10273352;28;20056;-71
2021/11/04 03:24:47;;;;;;;39.22;23.90;;;;;;;7.67;100.00;100262.78;10268640;28;20515;-72
2021/11/04 03:29:43;;;;;;;38.03;23.98;;;;;;;7.70;100.00;100262.16;10266849;28;20553;-72
2021/11/04 03:34:42;;;;;;;40.42;23.50;;;;;;;7.70;100.00;100262.16;10260043;28;20041;-71
2021/11/04 03:39:40;;;;;;;35.75;21.92;;;;;;;7.70;100.00;100253.19;10275084;28;20140;-71
2021/11/04 03:44:39;;;;;;;41.15;24.02;;;;;;;7.74;100.00;100260.44;10264298;28;20077;-73
2021/11/04 03:49:37;;;;;;;38.40;22.30;;;;;;;7.66;99.85;100266.63;10266671;28;20107;-72
2021/11/04 03:54:33;;;;;;;33.15;20.13;;;;;;;7.69;100.00;100282.31;10263972;28;20087;-72
2021/11/04 03:59:30;;;;;;;41.15;21.95;;;;;;;7.70;99.84;100273.03;10268867;28;20120;-71
2021/11/04 04:04:26;;;;;;;30.88;19.60;;;;;;;7.65;99.53;100259.56;10263427;28;20103;-72
2021/11/04 04:09:24;;;;;;;31.90;18.92;;;;;;;7.63;100.00;100267.22;10254258;28;20095;-71
2021/11/04 04:14:21;;;;;;;29.67;17.50;;;;;;;7.66;100.00;100272.06;10265315;28;20457;-71
2021/11/04 04:19:17;;;;;;;29.10;16.08;;;;;;;7.64;99.85;100255.25;10250878;28;20045;-72
2021/11/04 04:24:14;;;;;;;31.25;18.33;;;;;;;7.67;99.97;100251.91;10264076;28;20051;-72
2021/11/04 04:29:10;;;;;;;25.70;17.10;;;;;;;7.62;99.71;100254.75;10253210;28;20068;-73
2021/11/04 04:34:07;;;;;;;28.85;17.15;;;;;;;7.59;99.63;100255.38;10263917;28;20044;-72
2021/11/04 04:39:03;;;;;;;25.35;16.63;;;;;;;7.59;100.00;100255.38;10253838;28;20044;-71
2021/11/04 04:44:00;;;;;;;26.23;17.08;;;;;;;7.60;99.95;100262.41;10268868;28;20091;-70
2021/11/04 04:48:57;;;;;;;29.45;16.70;;;;;;;7.56;100.00;100255.97;10261716;28;20045;-71
2021/11/04 04:53:53;;;;;;;26.42;16.20;;;;;;;7.58;100.00;100248.31;10253965;28;20136;-72
2021/11/04 04:58:50;;;;;;;25.05;16.17;;;;;;;7.59;99.84;100260.81;10265502;28;20087;-72
2021/11/04 05:03:46;;;;;;;27.23;16.80;;;;;;;7.62;99.64;100260.19;10269254;28;20041;-74
2021/11/04 05:08:43;;;;;;;27.38;16.30;;;;;;;7.63;100.00;100261.78;10255962;28;20045;-72
2021/11/04 05:13:42;;;;;;;26.25;18.27;;;;;;;7.65;100.00;100270.44;10253160;28;20049;-72
2021/11/04 05:18:39;;;;;;;27.92;17.90;;;;;;;7.64;100.00;100268.84;10254174;28;20041;-72
2021/11/04 05:23:35;;;;;;;29.08;19.52;;;;;;;7.68;100.00;100280.72;10262232;28;20055;-72
2021/11/04 05:28:32;;;;;;;28.88;19.10;;;;;;;7.63;100.00;100278.09;10271382;28;20045;-72
2021/11/04 05:33:29;;;;;;;32.65;19.45;;;;;;;7.62;100.00;100281.16;10272069;28;20087;-71
2021/11/04 05:38:26;;;;;;;32.88;20.90;;;;;;;7.61;100.00;100277.59;10260207;28;20041;-71
2021/11/04 05:43:22;;;;;;;30.10;19.60;;;;;;;7.63;99.99;100283.56;10271104;28;20080;-70
2021/11/04 05:48:19;;;;;;;34.92;22.48;;;;;;;7.64;100.00;100289.81;10253741;28;20044;-71
2021/11/04 05:53:15;;;;;;;37.55;22.65;;;;;;;7.65;100.00;100292.22;10256548;28;20049;-72
2021/11/04 05:58:12;;;;;;;36.60;22.48;;;;;;;7.68;100.00;100298.94;10253915;28;20056;-72
2021/11/04 06:03:11;;;;;;;40.65;23.23;;;;;;;7.64;100.00;100301.50;10253654;28;20048;-73
2021/11/04 06:08:08;;;;;;;35.47;22.17;;;;;;;7.65;100.00;100307.75;10261792;28;20083;-74
2021/11/04 06:13:04;;;;;;;37.00;22.60;;;;;;;7.65;100.00;100303.09;10247668;28;20073;-72
2021/11/04 06:18:01;;;;;;;54.42;22.23;;;;;;;7.66;100.00;100315.59;10266192;28;20070;-72
2021/11/04 06:22:57;;;;;;;37.47;22.17;;;;;;;7.66;100.00;100315.59;10263934;28;20045;-73
2021/11/04 06:27:54;;;;;;;41.05;23.77;;;;;;;7.66;100.00;100323.78;10253353;28;20045;-72
2021/11/04 06:32:50;;;;;;;38.17;22.40;;;;;;;7.65;100.00;100324.06;10259587;28;20107;-74
2021/11/04 06:37:47;;;;;;;36.47;22.35;;;;;;;7.65;100.00;100322.13;10275276;28;20045;-72
2021/11/04 06:42:43;;;;;;;38.17;23.45;;;;;;;7.68;100.00;100321.53;10274042;28;20087;-72
2021/11/04 06:47:50;;;;;;;40.00;22.08;;;;;;;7.68;100.00;100324.28;10244884;28;20049;-72
2021/11/04 06:53:10;;;;;;;33.00;21.35;;;;;;;7.68;100.00;100320.72;10241303;28;20041;-71
2021/11/04 06:58:14;;;;;;;31.27;18.63;;;;;;;7.71;100.00;100322.84;10252686;28;20119;-72
2021/11/04 07:03:16;;;;;;;31.10;19.15;;;;;;;7.71;100.00;100323.66;10272162;28;20071;-74
2021/11/04 07:08:22;;;;;;;30.53;19.13;;;;;;;7.75;100.00;100329.25;10272036;28;20061;-72
2021/11/04 07:13:20;;;;;;;31.60;19.77;;;;;;;7.73;100.00;100332.31;10256242;28;20087;-73
2021/11/04 07:18:19;;;;;;;28.05;17.48;;;;;;;7.74;100.00;100322.22;10257284;28;20065;-72
2021/11/04 07:23:24;;;;;;;33.35;20.42;;;;;;;7.72;100.00;100319.78;10264692;28;20094;-72
2021/11/04 07:28:24;;;;;;;34.72;20.23;;;;;;;7.70;100.00;100330.19;10256356;28;20395;-73
2021/11/04 07:33:23;;;;;;;34.30;20.05;;;;;;;7.68;100.00;100321.53;10263609;28;20072;-72
2021/11/04 07:38:22;;;;;;;38.65;20.15;;;;;;;7.70;100.00;100313.84;10260362;28;20076;-71
2021/11/04 07:43:18;;;;;;;32.70;19.23;;;;;;;7.69;100.00;100309.53;10272139;28;20048;-72
2021/11/04 07:48:15;;;;;;;32.95;19.50;;;;;;;7.69;100.00;100312.25;10228272;28;20045;-74
2021/11/04 07:53:13;;;;;;;32.83;18.60;;;;;;;7.72;100.00;100306.19;10229515;28;20046;-71
2021/11/04 07:58:10;;;;;;;30.60;18.33;;;;;;;7.69;100.00;100298.66;10233228;28;20077;-72
2021/11/04 08:03:06;;;;;;;30.70;18.15;;;;;;;7.66;100.00;100299.28;10252718;28;20079;-73
2021/11/04 08:08:05;;;;;;;28.38;17.10;;;;;;;7.67;100.00;100300.88;10258959;28;20128;-72
2021/11/04 08:13:06;;;;;;;28.48;17.98;;;;;;;7.66;100.00;100296.56;10262735;28;20048;-72
2021/11/04 08:18:03;;;;;;;28.80;15.80;;;;;;;7.62;100.00;100303.72;10246360;28;20410;-73
2021/11/04 08:23:01;;;;;;;27.13;15.73;;;;;;;7.69;100.00;100301.38;10256584;28;20053;-71
2021/11/04 08:27:58;;;;;;;27.92;16.40;;;;;;;7.61;100.00;100312.97;10270116;28;20098;-74
2021/11/04 08:32:54;;;;;;;30.08;16.95;;;;;;;7.63;100.00;100304.53;10255238;28;20041;-73
2021/11/04 08:37:53;;;;;;;26.00;15.50;;;;;;;7.73;100.00;100298.84;10231628;28;20041;-72
2021/11/04 08:42:50;;;;;;;26.80;15.60;;;;;;;7.76;100.00;100298.22;10237372;28;20103;-72
2021/11/04 08:47:47;;;;;;;25.23;13.13;;;;;;;7.64;100.00;100290.63;10227047;28;20467;-71
2021/11/04 08:52:46;;;;;;;17.95;10.98;;;;;;;7.71;100.00;100290.19;10229408;28;20111;-71
2021/11/04 08:57:42;;;;;;;20.30;13.00;;;;;;;7.74;100.00;100295.81;10226986;28;20041;-73
2021/11/04 09:02:39;;;;;;;17.98;11.10;;;;;;;7.74;100.00;100301.25;10228000;28;20076;-73
2021/11/04 09:07:40;;;;;;;19.23;11.77;;;;;;;7.74;100.00;100293.09;10227934;28;20069;-73
2021/11/04 09:12:38;;;;;;;18.63;10.65;;;;;;;7.74;100.00;100290.34;10225492;28;20099;-72
2021/11/04 09:17:34;;;;;;;21.77;11.68;;;;;;;7.75;100.00;100297.44;10247565;28;20135;-72
2021/11/04 09:22:33;;;;;;;16.88;10.68;;;;;;;7.77;100.00;100288.94;10248898;28;20095;-71
2021/11/04 09:27:29;;;;;;;16.98;9.93;;;;;;;7.79;100.00;100287.50;10266538;28;20040;-71
2021/11/04 09:32:26;;;;;;;16.48;8.73;;;;;;;7.79;100.00;100284.00;10262574;28;20050;-72
2021/11/04 09:37:26;;;;;;;13.95;8.80;;;;;;;7.88;100.00;100278.63;10252021;28;20045;-73
2021/11/04 09:42:23;;;;;;;16.02;9.70;;;;;;;7.91;100.00;100272.53;10265508;28;20490;-74
2021/11/04 09:47:26;;;;;;;17.92;10.30;;;;;;;7.97;100.00;100265.84;10253619;28;20072;-72
2021/11/04 09:52:28;;;;;;;16.33;9.83;;;;;;;7.94;100.00;100261.06;10257789;28;20114;-74
2021/11/04 09:57:30;;;;;;;20.27;10.88;;;;;;;7.99;100.00;100263.63;10250207;28;20094;-73
2021/11/04 10:02:27;;;;;;;16.98;10.55;;;;;;;8.00;100.00;100263.31;10249769;28;20473;-72
2021/11/04 10:07:24;;;;;;;18.75;11.20;;;;;;;8.05;100.00;100262.38;10251459;28;20075;-72
2021/11/04 10:12:20;;;;;;;21.50;11.77;;;;;;;8.03;100.00;100259.19;10259292;28;20090;-73
2021/11/04 10:17:36;;;;;;;20.77;12.88;;;;;;;8.05;100.00;100262.38;10256655;28;20052;-72
2021/11/04 10:22:33;;;;;;;22.25;13.93;;;;;;;8.09;100.00;100260.63;10250108;28;20081;-72
2021/11/04 10:27:32;;;;;;;20.00;12.07;;;;;;;8.14;100.00;100254.25;10253435;28;20049;-71
2021/11/04 10:32:36;;;;;;;21.52;13.35;;;;;;;8.10;100.00;100262.25;10264874;28;20518;-74
2021/11/04 10:37:42;;;;;;;32.90;15.02;;;;;;;8.21;100.00;100255.44;10236250;28;20252;-74
2021/11/04 10:42:55;;;;;;;25.73;15.38;;;;;;;8.27;100.00;100253.38;10232447;28;20115;-73
2021/11/04 10:48:20;;;;;;;24.92;15.80;;;;;;;8.34;100.00;100263.81;10227917;28;20041;-76
2021/11/04 10:53:20;;;;;;;25.10;16.55;;;;;;;8.27;100.00;100258.81;10234585;28;20131;-73
2021/11/04 10:58:28;;;;;;;24.40;15.35;;;;;;;8.21;100.00;100255.44;10228386;28;20057;-72
2021/11/04 11:03:27;;;;;;;21.85;13.15;;;;;;;8.21;100.00;100250.00;10242271;28;20054;-72
2021/11/04 11:08:28;;;;;;;22.17;14.27;;;;;;;8.18;100.00;100249.78;10267312;28;20081;-73
2021/11/04 11:13:24;;;;;;;25.92;15.20;;;;;;;8.17;100.00;100243.56;10270812;28;20448;-73
2021/11/04 11:18:23;;;;;;;23.75;14.88;;;;;;;8.23;100.00;100242.28;10276274;28;20045;-72
2021/11/04 11:23:22;;;;;;;25.75;15.82;;;;;;;8.28;100.00;100237.81;10265972;28;20450;-73
2021/11/04 11:28:28;;;;;;;27.35;15.65;;;;;;;8.35;100.00;100238.16;10273643;28;20076;-74
2021/11/04 11:33:25;;;;;;;24.88;12.95;;;;;;;8.25;99.96;100233.00;10254592;28;20450;-72
2021/11/04 11:38:22;;;;;;;23.27;13.63;;;;;;;8.38;99.66;100237.56;10254898;28;20102;-73
2021/11/04 11:43:18;;;;;;;22.45;14.13;;;;;;;8.33;100.00;100229.50;10270266;28;20115;-72
2021/11/04 11:48:18;;;;;;;20.60;13.20;;;;;;;8.34;100.00;100231.13;10259976;28;20055;-73
2021/11/04 11:53:32;;;;;;;20.38;13.40;;;;;;;8.35;99.83;100233.53;10250695;28;20115;-72
2021/11/04 11:58:45;;;;;;;21.00;14.30;;;;;;;8.36;100.00;100228.91;10250837;28;22016;-73
2021/11/04 12:03:45;;;;;;;19.58;12.95;;;;;;;8.38;99.95;100226.66;10259363;28;20042;-72
2021/11/04 12:08:48;;;;;;;19.00;12.32;;;;;;;8.29;99.21;100231.28;10258572;28;20103;-73
2021/11/04 12:13:45;;;;;;;;;;;;;;;8.20;99.09;100229.31;10273520;28;20091;-72
2021/11/04 12:18:55;;;;;;;19.15;11.25;;;;;;;8.14;99.34;100222.38;10241689;28;19921;-72
2021/11/04 12:23:54;;;;;;;21.42;12.20;;;;;;;8.23;99.47;100215.03;10269279;28;20045;-72
2021/11/04 12:28:51;;;;;;;18.38;12.52;;;;;;;8.13;99.84;100219.97;10261698;28;20469;-72
2021/11/04 12:33:49;;;;;;;23.70;13.02;;;;;;;8.19;100.00;100208.66;10250701;28;20060;-71
2021/11/04 12:38:46;;;;;;;19.02;12.48;;;;;;;8.22;100.00;100218.91;10260613;28;20045;-71
2021/11/04 12:43:46;;;;;;;22.80;13.38;;;;;;;8.28;100.00;100218.75;10274541;28;20083;-72
2021/11/04 12:48:46;;;;;;;20.95;13.35;;;;;;;8.32;100.00;100217.00;10258781;28;20096;-72
2021/11/04 12:53:54;;;;;;;24.55;13.50;;;;;;;8.25;100.00;100230.28;10249911;28;20173;-72
2021/11/04 12:59:00;;;;;;;20.63;13.80;;;;;;;8.28;100.00;100224.19;10246740;28;20042;-72
2021/11/04 13:03:56;;;;;;;26.95;14.63;;;;;;;8.21;100.00;100228.19;10252545;28;20044;-74
2021/11/04 13:09:03;;;;;;;25.17;13.38;;;;;;;8.15;100.00;100224.00;10251828;28;20152;-72
2021/11/04 13:14:01;;;;;;;17.52;12.63;;;;;;;8.20;100.00;100223.84;10260569;28;20145;-73
2021/11/04 13:18:58;;;;;;;20.67;13.68;;;;;;;8.14;100.00;100222.38;10265840;28;20080;-73
2021/11/04 13:23:55;;;;;;;18.85;12.95;;;;;;;8.13;100.00;100226.22;10262991;28;20099;-73
2021/11/04 13:28:55;;;;;;;17.50;11.63;;;;;;;8.10;100.00;100221.41;10258340;28;20083;-72
2021/11/04 13:33:59;;;;;;;18.90;12.95;;;;;;;8.05;100.00;100228.91;10250117;28;20081;-72
2021/11/04 13:39:02;;;;;;;21.58;13.63;;;;;;;8.07;100.00;100232.91;10258360;28;20073;-75
2021/11/04 13:44:01;;;;;;;20.67;12.75;;;;;;;8.07;100.00;100238.34;10267121;28;20056;-74
2021/11/04 13:49:05;;;;;;;19.75;13.10;;;;;;;8.05;100.00;100242.50;10268776;28;20072;-72
2021/11/04 13:54:17;;;;;;;19.42;13.18;;;;;;;7.97;100.00;100238.63;10250662;28;20068;-71
2021/11/04 13:59:31;;;;;;;18.85;11.75;;;;;;;7.94;100.00;100242.00;10241258;28;20049;-72
2021/11/04 14:04:27;;;;;;;22.90;13.35;;;;;;;7.99;100.00;100236.41;10254769;28;20780;-74
2021/11/04 14:09:29;;;;;;;18.65;13.00;;;;;;;8.02;100.00;100241.22;10258034;28;20473;-72
2021/11/04 14:14:25;;;;;;;19.17;12.07;;;;;;;8.01;100.00;100242.34;10265315;28;20041;-72
2021/11/04 14:19:22;;;;;;;17.20;10.88;;;;;;;7.96;100.00;100246.00;10253489;28;20511;-72
2021/11/04 14:24:18;;;;;;;14.57;10.65;;;;;;;7.98;100.00;100240.22;10273331;28;20069;-72
2021/11/04 14:29:15;;;;;;;15.57;10.57;;;;;;;7.92;100.00;100246.94;10271215;28;20080;-74
2021/11/04 14:34:12;;;;;;;16.05;10.73;;;;;;;7.95;100.00;100254.47;10254435;28;20114;-72
2021/11/04 14:39:08;;;;;;;16.80;10.98;;;;;;;7.93;100.00;100264.88;10266536;28;20094;-72
2021/11/04 14:44:05;;;;;;;18.55;11.80;;;;;;;7.96;100.00;100258.78;10269371;28;20506;-71
2021/11/04 14:49:08;;;;;;;12.60;9.95;;;;;;;7.92;100.00;100257.81;10256018;28;20056;-73
2021/11/04 14:54:07;;;;;;;17.77;11.68;;;;;;;7.92;100.00;100263.28;10266610;28;20573;-72
2021/11/04 14:59:03;;;;;;;16.23;10.60;;;;;;;7.85;100.00;100271.06;10260277;28;20045;-73
2021/11/04 15:04:00;;;;;;;17.75;10.52;;;;;;;7.84;100.00;100277.63;10265724;28;20110;-73
2021/11/04 15:08:56;;;;;;;19.13;11.55;;;;;;;7.83;100.00;100281.47;10251249;28;20127;-73
2021/11/04 15:13:54;;;;;;;19.90;11.82;;;;;;;7.80;100.00;100283.69;10276700;28;20045;-73
2021/11/04 15:18:51;;;;;;;20.85;12.70;;;;;;;7.80;100.00;100289.13;10256296;28;20048;-72
2021/11/04 15:23:48;;;;;;;19.08;12.27;;;;;;;7.78;100.00;100285.13;10269256;28;20087;-72
2021/11/04 15:28:44;;;;;;;18.35;11.20;;;;;;;7.82;100.00;100296.16;10260576;28;20530;-72
2021/11/04 15:33:41;;;;;;;15.82;10.35;;;;;;;7.85;100.00;100295.56;10251662;28;20098;-71
2021/11/04 15:38:37;;;;;;;16.50;11.70;;;;;;;7.79;100.00;100298.41;10262600;28;20457;-72
2021/11/04 15:43:37;;;;;;;18.25;11.45;;;;;;;7.82;100.00;100296.16;10256897;28;20045;-73
2021/11/04 15:48:34;;;;;;;15.52;10.43;;;;;;;7.76;100.00;100309.91;10268463;28;20079;-71
2021/11/04 15:53:31;;;;;;;17.60;11.30;;;;;;;7.74;100.00;100314.84;10259772;28;20093;-74
2021/11/04 15:58:27;;;;;;;19.25;10.45;;;;;;;7.75;100.00;100315.66;10261921;28;20049;-71
2021/11/04 16:03:24;;;;;;;19.08;11.77;;;;;;;7.72;100.00;100330.69;10266687;28;20048;-72
2021/11/04 16:08:20;;;;;;;17.35;11.02;;;;;;;7.66;100.00;100329.22;10266791;28;20573;-75
2021/11/04 16:13:20;;;;;;;18.80;12.07;;;;;;;7.68;100.00;100335.16;10265758;28;20419;-73
2021/11/04 16:18:16;;;;;;;21.33;13.48;;;;;;;7.63;100.00;100340.69;10264049;28;20671;-72
2021/11/04 16:23:13;;;;;;;20.70;13.02;;;;;;;7.68;100.00;100345.22;10264362;28;20084;-71
2021/11/04 16:28:11;;;;;;;20.65;14.02;;;;;;;7.69;100.00;100347.63;10260620;28;20091;-72
2021/11/04 16:33:08;;;;;;;21.73;13.43;;;;;;;7.61;100.00;100351.06;10274236;28;20469;-72
2021/11/04 16:38:04;;;;;;;26.10;14.45;;;;;;;7.70;100.00;100360.13;10272059;28;20597;-72
2021/11/04 16:43:04;;;;;;;21.42;14.48;;;;;;;7.66;100.00;100364.59;10278100;28;20041;-72
2021/11/04 16:48:03;;;;;;;24.48;14.55;;;;;;;7.66;100.00;100370.03;10251022;28;20068;-72
2021/11/04 16:53:00;;;;;;;25.08;15.10;;;;;;;7.62;100.00;100371.75;10251098;28;20056;-70
2021/11/04 16:57:56;;;;;;;27.52;15.52;;;;;;;7.64;100.00;100376.88;10245157;28;20682;-73
2021/11/04 17:02:53;;;;;;;26.38;16.38;;;;;;;7.60;100.00;100382.13;10245428;28;20068;-72
2021/11/04 17:07:49;;;;;;;28.35;16.95;;;;;;;7.63;100.00;100378.78;10215129;28;20038;-71
2021/11/04 17:12:47;;;;;;;27.98;17.73;;;;;;;7.60;100.00;100382.13;10237434;28;20036;-71
2021/11/04 17:17:45;;;;;;;31.10;18.02;;;;;;;7.61;100.00;100393.81;10246483;28;20065;-71
2021/11/04 17:22:44;;;;;;;29.98;16.95;;;;;;;7.63;100.00;100403.28;10250551;28;20041;-71
2021/11/04 17:27:42;;;;;;;27.95;18.05;;;;;;;7.57;100.00;100416.19;10243913;28;20094;-72
2021/11/04 17:32:38;;;;;;;26.90;16.83;;;;;;;7.60;100.00;100414.78;10254830;28;20053;-74
2021/11/04 17:37:43;;;;;;;29.00;18.00;;;;;;;7.53;100.00;100419.81;10250737;28;20654;-70
2021/11/04 17:42:39;;;;;;;32.72;18.63;;;;;;;7.49;100.00;100426.97;10249392;28;20041;-72
2021/11/04 17:47:37;;;;;;;34.40;19.33;;;;;;;7.52;100.00;100429.91;10255736;28;20057;-71
2021/11/04 17:52:33;;;;;;;34.22;18.70;;;;;;;7.54;100.00;100432.31;10261816;28;20065;-71
2021/11/04 17:57:30;;;;;;;31.48;19.48;;;;;;;7.56;100.00;100435.53;10249873;28;20474;-72
2021/11/04 18:02:27;;;;;;;33.25;20.33;;;;;;;7.55;100.00;100442.09;10255763;28;20131;-72
2021/11/04 18:07:24;;;;;;;31.38;16.65;;;;;;;7.56;100.00;100454.56;10259354;28;20044;-72
2021/11/04 18:12:21;;;;;;;34.35;20.50;;;;;;;7.59;100.00;100462.16;10249641;28;20509;-72
2021/11/04 18:17:17;;;;;;;27.77;18.00;;;;;;;7.58;100.00;100465.97;10240964;28;20102;-72
2021/11/04 18:22:20;;;;;;;33.25;18.13;;;;;;;7.51;100.00;100469.09;10266045;28;20453;-72
2021/11/04 18:27:17;;;;;;;33.95;20.88;;;;;;;7.50;100.00;100483.81;10249581;28;20599;-72
2021/11/04 18:32:14;;;;;;;34.65;20.17;;;;;;;7.54;100.00;100481.28;10267714;28;20084;-72
2021/11/04 18:37:11;;;;;;;33.10;19.75;;;;;;;7.54;100.00;100478.56;10242479;28;20048;-72
2021/11/04 18:42:12;;;;;;;37.03;21.48;;;;;;;7.61;100.00;100492.56;10254358;28;20543;-72
2021/11/04 18:47:09;;;;;;;25.92;15.63;;;;;;;7.58;100.00;100487.72;10253478;28;20104;-73
2021/11/04 18:52:06;;;;;;;32.97;20.58;;;;;;;7.56;100.00;100500.84;10251401;28;20040;-72
2021/11/04 18:57:04;;;;;;;26.95;17.20;;;;;;;7.52;100.00;100505.25;10240108;28;20616;-72
2021/11/04 19:02:01;;;;;;;26.20;17.48;;;;;;;7.55;100.00;100507.41;10259619;28;20379;-72
2021/11/04 19:07:00;;;;;;;29.20;18.67;;;;;;;7.56;100.00;100511.72;10262412;28;20044;-72
2021/11/04 19:11:58;;;;;;;34.25;20.77;;;;;;;7.50;100.00;100515.66;10256633;28;20056;-72
2021/11/04 19:16:57;;;;;;;28.98;18.75;;;;;;;7.49;100.00;100527.63;10278054;28;20468;-73
2021/11/04 19:21:56;;;;;;;30.38;19.80;;;;;;;7.49;100.00;100535.78;10273875;28;20073;-72
2021/11/04 19:26:52;;;;;;;30.42;20.23;;;;;;;7.49;100.00;100543.97;10260428;28;20048;-72
2021/11/04 19:31:49;;;;;;;29.05;18.55;;;;;;;7.46;100.00;100544.56;10268378;28;20037;-72
2021/11/04 19:36:46;;;;;;;29.75;19.30;;;;;;;7.47;100.00;100546.16;10253268;28;20098;-72
2021/11/04 19:41:43;;;;;;;27.58;17.10;;;;;;;7.40;100.00;100559.38;10266849;28;20041;-72
2021/11/04 19:46:52;;;;;;;30.88;18.67;;;;;;;7.32;100.00;100569.81;10279364;28;20106;-71
2021/11/04 19:51:49;;;;;;;27.88;16.77;;;;;;;7.30;100.00;100573.97;10270213;28;20052;-71
2021/11/04 19:56:45;;;;;;;29.98;18.67;;;;;;;7.29;100.00;100581.31;10260768;28;20073;-71
2021/11/04 20:01:42;;;;;;;28.10;17.02;;;;;;;7.26;100.00;100581.09;10245913;28;20699;-71
2021/11/04 20:06:38;;;;;;;26.15;17.10;;;;;;;7.29;100.00;100597.63;10258775;28;21717;-71
2021/11/04 20:11:37;;;;;;;28.13;17.88;;;;;;;7.28;100.00;100598.72;10253346;28;20068;-69
2021/11/04 20:16:34;;;;;;;24.63;17.92;;;;;;;7.30;100.00;100607.41;10257026;28;20465;-69
2021/11/04 20:21:31;;;;;;;27.85;18.80;;;;;;;7.25;100.00;100615.66;10261458;28;20584;-70
2021/11/04 20:26:29;;;;;;;31.33;19.55;;;;;;;7.28;100.00;100620.47;10257423;28;20414;-70
2021/11/04 20:31:28;;;;;;;28.65;17.88;;;;;;;7.25;100.00;100626.53;10265815;28;20087;-71
2021/11/04 20:36:25;;;;;;;28.70;19.10;;;;;;;7.28;100.00;100636.00;10251757;28;20053;-70
2021/11/04 20:41:22;;;;;;;30.13;19.27;;;;;;;7.27;100.00;100642.56;10250619;28;20770;-71
2021/11/04 20:46:18;;;;;;;32.42;20.77;;;;;;;7.27;100.00;100645.28;10255797;28;20442;-71
2021/11/04 20:51:15;;;;;;;31.83;20.27;;;;;;;7.27;100.00;100656.97;10262818;28;20110;-70
2021/11/04 20:56:12;;;;;;;36.15;21.05;;;;;;;7.25;100.00;100670.03;10251641;28;20045;-69
2021/11/04 21:01:09;;;;;;;31.83;20.33;;;;;;;7.25;100.00;100674.69;10260571;28;20132;-69
2021/11/04 21:06:05;;;;;;;31.08;21.75;;;;;;;7.27;100.00;100689.59;10258638;28;20262;-69
2021/11/04 21:11:04;;;;;;;30.92;20.08;;;;;;;7.28;100.00;100691.19;10263077;28;20098;-69
2021/11/04 21:16:01;;;;;;;35.00;21.60;;;;;;;7.26;100.00;100693.41;10261591;28;20504;-69
2021/11/04 21:20:58;;;;;;;30.30;19.85;;;;;;;7.25;100.00;100713.56;10265479;28;20571;-69
2021/11/04 21:25:54;;;;;;;30.10;19.23;;;;;;;7.32;100.00;100719.41;10271015;28;20072;-69
2021/11/04 21:30:51;;;;;;;33.63;20.15;;;;;;;7.37;100.00;100722.06;10283544;28;20037;-69
2021/11/04 21:35:48;;;;;;;34.58;20.77;;;;;;;7.35;100.00;100718.00;10268479;28;20536;-69
2021/11/04 21:40:44;;;;;;;35.20;21.48;;;;;;;7.33;100.00;100734.66;10283643;28;20073;-69
2021/11/04 21:45:43;;;;;;;33.28;22.65;;;;;;;7.35;100.00;100737.06;10273756;28;20080;-69
2021/11/04 21:50:40;;;;;;;33.72;21.83;;;;;;;7.31;100.00;100738.75;10269455;28;20107;-69
2021/11/04 21:55:38;;;;;;;33.67;21.90;;;;;;;7.31;100.00;100744.19;10266320;28;20040;-69
2021/11/04 22:00:34;;;;;;;35.70;22.08;;;;;;;7.34;100.00;100749.84;10259249;28;20499;-70
2021/11/04 22:05:34;;;;;;;38.97;24.30;;;;;;;7.32;100.00;100756.69;10267721;28;20447;-70
2021/11/04 22:10:31;;;;;;;38.67;23.70;;;;;;;7.32;100.00;100768.38;10271154;28;20061;-70
2021/11/04 22:15:29;;;;;;;38.15;24.65;;;;;;;7.34;100.00;100774.34;10277602;28;20454;-70
2021/11/04 22:20:25;;;;;;;42.60;25.80;;;;;;;7.29;100.00;100779.06;10272623;28;20101;-70